createdAt,value
2019-03-30T00:01:23.517Z,9.70
2019-03-30T00:06:14.404Z,10.23
2019-03-30T00:11:05.293Z,12.50
2019-03-30T00:15:56.941Z,7.67
2019-03-30T00:20:48.577Z,9.50
2019-03-30T00:25:40.231Z,10.60
2019-03-30T00:30:31.125Z,9.68
2019-03-30T00:35:22.756Z,9.00
2019-03-30T00:40:14.388Z,10.20
2019-03-30T00:45:06.029Z,9.33
2019-03-30T00:49:57.669Z,8.93
2019-03-30T00:54:49.385Z,7.20
2019-03-30T00:59:40.285Z,8.50
2019-03-30T01:04:31.178Z,6.60
2019-03-30T01:09:22.068Z,8.00
2019-03-30T01:14:13.708Z,9.47
2019-03-30T01:19:04.605Z,9.18
2019-03-30T01:23:56.246Z,8.37
2019-03-30T01:28:47.940Z,8.27
2019-03-30T01:33:38.840Z,8.73
2019-03-30T01:38:29.732Z,8.00
2019-03-30T01:43:20.629Z,8.80
2019-03-30T01:48:12.268Z,8.50
2019-03-30T01:53:03.903Z,8.30
2019-03-30T01:57:55.530Z,7.67
2019-03-30T02:02:46.425Z,7.77
2019-03-30T02:07:37.321Z,8.20
2019-03-30T02:12:28.213Z,7.07
2019-03-30T02:17:20.321Z,8.23
2019-03-30T02:22:10.749Z,6.73
2019-03-30T02:27:02.372Z,7.93
2019-03-30T02:31:53.267Z,6.97
2019-03-30T02:36:44.173Z,8.02
2019-03-30T02:41:35.059Z,7.30
2019-03-30T02:46:25.953Z,7.37
2019-03-30T02:51:17.643Z,6.27
2019-03-30T02:56:08.527Z,5.87
2019-03-30T03:00:59.455Z,7.10
2019-03-30T03:05:50.343Z,6.20
2019-03-30T03:10:41.983Z,7.50
2019-03-30T03:15:33.608Z,6.93
2019-03-30T03:20:24.523Z,6.60
2019-03-30T03:25:15.406Z,6.27
2019-03-30T03:30:06.305Z,6.23
2019-03-30T03:34:57.230Z,5.73
2019-03-30T03:39:48.113Z,5.67
2019-03-30T03:44:39.742Z,5.73
2019-03-30T03:49:31.400Z,6.90
2019-03-30T03:54:23.027Z,6.07
2019-03-30T03:59:14.659Z,6.90
2019-03-30T04:04:06.290Z,7.10
2019-03-30T04:08:57.917Z,6.17
2019-03-30T04:13:49.542Z,5.20
2019-03-30T04:18:40.427Z,5.93
2019-03-30T04:23:31.329Z,7.10
2019-03-30T04:28:22.222Z,6.23
2019-03-30T04:33:13.930Z,6.33
2019-03-30T04:38:04.804Z,5.73
2019-03-30T04:42:55.692Z,6.80
2019-03-30T04:47:47.334Z,6.53
2019-03-30T04:52:38.967Z,5.43
2019-03-30T04:57:30.657Z,5.70
2019-03-30T05:02:21.542Z,5.90
2019-03-30T05:07:12.429Z,6.17
2019-03-30T05:12:04.057Z,5.70
2019-03-30T05:16:55.707Z,7.10
2019-03-30T05:21:47.378Z,5.87
2019-03-30T05:26:38.252Z,6.70
2019-03-30T05:31:29.878Z,5.90
2019-03-30T05:36:20.770Z,5.63
2019-03-30T05:41:11.646Z,6.37
2019-03-30T05:46:02.517Z,5.73
2019-03-30T05:50:54.144Z,5.57
2019-03-30T05:55:45.034Z,5.77
2019-03-30T06:00:35.922Z,5.27
2019-03-30T06:05:27.551Z,5.27
2019-03-30T06:10:19.180Z,6.53
2019-03-30T06:15:10.808Z,5.70
2019-03-30T06:20:01.698Z,5.40
2019-03-30T06:24:52.585Z,5.43
2019-03-30T06:29:43.465Z,4.63
2019-03-30T06:34:42.293Z,5.23
2019-03-30T06:39:36.939Z,4.90
2019-03-30T06:44:24.829Z,6.00
2019-03-30T06:49:16.517Z,5.90
2019-03-30T06:54:07.417Z,8.83
2019-03-30T06:58:58.329Z,8.45
2019-03-30T07:03:49.233Z,8.70
2019-03-30T07:08:40.850Z,8.93
2019-03-30T07:13:31.720Z,10.50
2019-03-30T07:18:22.673Z,11.23
2019-03-30T07:23:13.559Z,8.83
2019-03-30T07:28:05.203Z,10.77
2019-03-30T07:32:56.087Z,9.97
2019-03-30T07:37:46.972Z,11.77
2019-03-30T07:42:37.946Z,14.00
2019-03-30T07:47:28.850Z,17.23
2019-03-30T07:52:19.742Z,14.57
2019-03-30T07:57:17.161Z,12.43
2019-03-30T08:02:02.341Z,14.70
2019-03-30T08:06:53.234Z,14.60
2019-03-30T08:11:44.124Z,12.10
2019-03-30T08:16:35.004Z,20.77
2019-03-30T08:21:25.882Z,19.10
2019-03-30T08:26:17.598Z,15.73
2019-03-30T08:31:09.226Z,16.90
2019-03-30T08:36:00.113Z,16.83
2019-03-30T08:40:50.993Z,16.73
2019-03-30T08:45:42.672Z,18.10
2019-03-30T08:50:33.565Z,22.90
2019-03-30T08:55:24.597Z,20.80
2019-03-30T09:00:15.522Z,22.48
2019-03-30T09:05:06.429Z,23.20
2019-03-30T09:09:57.317Z,19.10
2019-03-30T09:14:48.237Z,23.07
2019-03-30T09:19:39.879Z,23.03
2019-03-30T09:24:30.767Z,19.20
2019-03-30T09:29:21.679Z,24.23
2019-03-30T09:34:12.611Z,21.33
2019-03-30T09:39:04.258Z,20.47
2019-03-30T09:43:55.947Z,17.33
2019-03-30T09:48:46.846Z,16.30
2019-03-30T09:53:37.733Z,19.53
2019-03-30T09:58:29.372Z,16.67
2019-03-30T10:03:21.008Z,19.97
2019-03-30T10:08:12.642Z,20.55
2019-03-30T10:13:04.264Z,19.00
2019-03-30T10:17:55.884Z,15.13
2019-03-30T10:22:46.775Z,16.13
2019-03-30T10:27:37.663Z,15.60
2019-03-30T10:32:28.554Z,15.73
2019-03-30T10:37:20.214Z,15.40
2019-03-30T10:42:11.177Z,15.20
2019-03-30T10:47:02.102Z,11.77
2019-03-30T10:51:54.509Z,12.67
2019-03-30T10:56:43.897Z,11.73
2019-03-30T11:01:34.801Z,9.70
2019-03-30T11:06:25.771Z,12.57
2019-03-30T11:11:16.758Z,11.25
2019-03-30T11:16:07.654Z,8.07
2019-03-30T11:20:59.282Z,7.67
2019-03-30T11:25:50.921Z,7.63
2019-03-30T11:30:42.545Z,8.03
2019-03-30T11:35:34.221Z,9.80
2019-03-30T11:40:25.109Z,8.80
2019-03-30T11:45:16.837Z,7.27
2019-03-30T11:50:07.749Z,6.90
2019-03-30T11:54:58.674Z,7.63
2019-03-30T11:59:50.303Z,6.77
2019-03-30T12:04:41.194Z,6.93
2019-03-30T12:09:32.086Z,7.40
2019-03-30T12:14:22.978Z,6.60
2019-03-30T12:19:14.655Z,4.60
2019-03-30T12:24:05.536Z,5.60
2019-03-30T12:28:57.157Z,4.10
2019-03-30T12:33:48.802Z,3.95
2019-03-30T12:38:40.420Z,4.20
2019-03-30T12:43:31.303Z,3.95
2019-03-30T12:48:22.197Z,4.20
2019-03-30T12:53:13.089Z,3.63
2019-03-30T12:58:04.713Z,4.20
2019-03-30T13:02:56.338Z,4.70
2019-03-30T13:07:47.221Z,4.60
2019-03-30T13:12:38.113Z,4.83
2019-03-30T13:17:29.048Z,4.13
2019-03-30T13:22:20.718Z,4.43
2019-03-30T13:27:13.053Z,5.07
2019-03-30T13:32:02.522Z,4.80
2019-03-30T13:36:53.420Z,5.60
2019-03-30T13:41:44.317Z,6.10
2019-03-30T13:46:35.966Z,5.53
2019-03-30T13:51:27.590Z,4.93
2019-03-30T13:56:19.221Z,6.43
2019-03-30T14:01:10.845Z,6.83
2019-03-30T14:06:01.721Z,7.60
2019-03-30T14:10:52.618Z,7.07
2019-03-30T14:15:43.511Z,7.13
2019-03-30T14:20:35.141Z,8.55
2019-03-30T14:25:26.020Z,8.10
2019-03-30T14:30:16.923Z,7.93
2019-03-30T14:35:07.801Z,8.20
2019-03-30T14:39:59.437Z,7.53
2019-03-30T14:44:51.062Z,7.30
2019-03-30T14:49:42.706Z,6.53
2019-03-30T14:54:34.369Z,7.07
2019-03-30T14:59:25.307Z,6.53
2019-03-30T15:04:16.293Z,6.83
2019-03-30T15:09:07.938Z,6.10
2019-03-30T15:13:58.833Z,8.20
2019-03-30T15:18:50.466Z,9.77
2019-03-30T15:23:42.101Z,11.40
2019-03-30T15:28:33.741Z,11.60
2019-03-30T15:33:25.373Z,10.50
2019-03-30T15:38:17.006Z,11.43
2019-03-30T15:43:07.893Z,16.50
2019-03-30T15:47:58.833Z,14.23
2019-03-30T15:52:49.705Z,12.57
2019-03-30T15:57:40.613Z,12.27
2019-03-30T16:02:31.590Z,12.20
2019-03-30T16:07:22.484Z,12.70
2019-03-30T16:12:13.409Z,14.93
2019-03-30T16:17:04.301Z,12.37
2019-03-30T16:21:55.184Z,10.50
2019-03-30T16:26:46.902Z,15.30
2019-03-30T16:31:37.786Z,27.13
2019-03-30T16:36:28.690Z,27.53
2019-03-30T16:41:19.587Z,22.42
2019-03-30T16:46:10.478Z,19.20
2019-03-30T16:51:01.386Z,19.27
2019-03-30T16:55:52.278Z,15.80
2019-03-30T17:00:55.688Z,16.23
2019-03-30T17:05:34.070Z,16.33
2019-03-30T17:10:25.702Z,12.13
2019-03-30T17:15:17.342Z,13.43
2019-03-30T17:20:08.965Z,13.20
2019-03-30T17:25:00.602Z,12.83
2019-03-30T17:29:52.228Z,10.97
2019-03-30T17:34:43.891Z,10.32
2019-03-30T17:39:34.781Z,12.13
2019-03-30T17:44:25.746Z,12.50
2019-03-30T17:49:16.606Z,12.93
2019-03-30T17:54:08.973Z,10.45
2019-03-30T17:59:00.603Z,11.40
2019-03-30T18:03:51.502Z,10.20
2019-03-30T18:08:42.469Z,9.33
2019-03-30T18:13:36.719Z,10.20
2019-03-30T18:18:25.009Z,10.93
2019-03-30T18:23:16.632Z,9.70
2019-03-30T18:28:07.528Z,10.57
2019-03-30T18:32:58.422Z,10.63
2019-03-30T18:37:49.310Z,9.97
2019-03-30T18:42:40.930Z,10.30
2019-03-30T18:47:32.570Z,9.00
2019-03-30T18:52:24.206Z,10.48
2019-03-30T18:57:15.835Z,10.50
2019-03-30T19:02:07.514Z,8.43
2019-03-30T19:06:58.399Z,8.90
2019-03-30T19:11:50.029Z,8.00
2019-03-30T19:16:41.014Z,7.63
2019-03-30T19:21:31.909Z,9.77
2019-03-30T19:26:22.797Z,9.20
2019-03-30T19:31:14.422Z,8.75
2019-03-30T19:36:06.044Z,8.63
2019-03-30T19:40:56.935Z,9.13
2019-03-30T19:45:47.830Z,8.73
2019-03-30T19:50:38.736Z,9.50
2019-03-30T19:55:29.626Z,9.03
2019-03-30T20:00:21.253Z,9.25
2019-03-30T20:05:13.161Z,9.30
2019-03-30T20:10:04.050Z,9.70
2019-03-30T20:14:54.935Z,10.00
2019-03-30T20:19:46.600Z,13.77
2019-03-30T20:24:37.480Z,10.70
2019-03-30T20:29:28.364Z,11.00
2019-03-30T20:34:19.249Z,13.80
2019-03-30T20:39:10.151Z,11.10
2019-03-30T20:44:01.786Z,11.60
2019-03-30T20:48:53.562Z,14.47
2019-03-30T20:53:44.463Z,12.17
2019-03-30T20:58:35.345Z,13.30
2019-03-30T21:03:26.234Z,11.90
2019-03-30T21:08:17.161Z,12.73
2019-03-30T21:13:08.058Z,11.90
2019-03-30T21:17:59.062Z,10.63
2019-03-30T21:22:49.965Z,12.03
2019-03-30T21:27:41.602Z,11.40
2019-03-30T21:32:32.517Z,11.90
2019-03-30T21:37:24.137Z,11.87
2019-03-30T21:42:15.769Z,11.83
2019-03-30T21:47:06.649Z,11.90
2019-03-30T21:51:57.544Z,12.27
2019-03-30T21:56:48.421Z,11.20
2019-03-30T22:01:40.800Z,12.18
2019-03-30T22:06:31.689Z,11.02
2019-03-30T22:11:22.688Z,14.30
2019-03-30T22:16:13.598Z,11.43
2019-03-30T22:21:04.530Z,11.87
2019-03-30T22:25:55.408Z,12.50
2019-03-30T22:30:46.307Z,10.93
2019-03-30T22:35:37.211Z,12.37
2019-03-30T22:40:28.927Z,12.20
2019-03-30T22:45:19.818Z,11.07
2019-03-30T22:50:10.701Z,10.50
2019-03-30T22:55:02.322Z,11.53
2019-03-30T22:59:53.953Z,12.30
2019-03-30T23:04:45.582Z,15.83
2019-03-30T23:09:36.474Z,14.05
2019-03-30T23:14:27.382Z,13.93
2019-03-30T23:19:18.282Z,14.27
2019-03-30T23:24:09.247Z,17.33
2019-03-30T23:29:00.129Z,20.27
2019-03-30T23:33:51.728Z,20.03
2019-03-30T23:38:43.359Z,15.77
2019-03-30T23:43:34.990Z,16.57
2019-03-30T23:48:26.631Z,18.93
2019-03-30T23:53:18.268Z,18.30
2019-03-30T23:58:09.962Z,17.77
